Terminal Aerodrome Forecast
Issued by NWS

Home | Current Version | Previous Version | Text Only | Print | Product List | Glossary On
Versions: 1 2 3 4 5 6 7 8 9 10 11 12 13 14 15 16 17 18 19 20 21 22 23 24 25 26 27 28 29 30
000
FTUS46 KPDT 191800 AAA
TAFALW
TAF AMD
KALW 191814Z 1918/2018 17006KT 4SM -RA BR SCT025 OVC035
     FM192000 21010KT P6SM BKN035 OVC050
     FM200000 19007KT P6SM VCSH SCT050 BKN100
     FM200400 16007KT P6SM SCT080 BKN250
     FM200900 14007KT P6SM -RA BKN035 OVC050=

USA.gov is the U.S. government's official web portal to all federal, state and local government web resources and services.